Laclede, Illinois
Current Conditions -  °F | °C
As of 10:35 AM on Saturday 20 Dec 2014 (Local Time) from K1H2 Reporting Station
Overcast Overcast  
Wind Chill: 27°   Ceiling: 6500
Heat Index: 33°   Visibility: 10mi
Dew Point: 25°   Wind: 6mph
Humidity: 72%   Direction: 110°ESE
Pressure: 30.33"   Gusts: NA
Location:  38.891°N, 88.6694°W
Report Text: K1H2 201635Z AUTO 11005KT 10SM OVC065 01/M04 A3033 RMK AO2 T00051040
Loading
Personal Weather Stations






























Interactive Weather Map New forecast layout! Learn more

10-Day Weather Forecast

Advertisements
Track Severe Weather on mobile